Ana Sayfa
METAR-TAF:

METAR-TAF

Havaalanları :

Butler, Pensilvanya, Amerika Birleşik Devletleri

Enlem: 40-47N, Boylam: 079-57W, yükseklik: 380 m

Güncel hava durumu gözlemi

Rapor saat 22:56 UTC de 33 dakika önce yapıldı.
Rüzgar güneydan 3 kt
Sıcaklık 7°C
Nem 93%
Basınç 1017 hPa
Görüş mesafesi: 16.1 km
3200 ft yükseklikte az bulutlu

METAR: KBTP 232256Z AUTO 18003KT 10SM FEW032 07/06 A3004 RMK AO2 SLP181 T00720056

Saat: 19:29 (23:29 UTC)


TAF: eksik

4.000'den fazla havaalanı için hava durumu gözlemleri ve tahminleri (METAR ve TAF raporları).

Kullanılabilir istasyonlar harita üzerinde sarı ve kırmızı noktalarla gösterilir.

İstasyonun adını görmek için fareyi noktanın üzerinde gezdirin.

Sonrasında hava gözlem ve tahminlerini görmek için tıklayın.

Haritayı değiştirmek için: yaklaştırmak için siyah artı işaretli yeşil düğmeye ve uzaklaştırmak için de eksi işaretli düğmeye hızla tıklayın; bitişik haritalar için yeşil okları kullanın.


METAR-TAF: